Data for 03/03/2008

Time Sea-Level Adjusted Pressure Absolute Pressure Temperature Relative Humidity Dew Point   
(mb) (inHg) (mb) (inHg) (C) (F) (%) (C) (F)
00:05 1025 30.27 854 25.22 -5.4 22.4 63 -11.3 11.6
00:10 1025 30.27 854 25.22 -5.5 22.1 65 -11.2 11.9
00:15 1025 30.27 854 25.22 -5.4 22.3 65 -10.9 12.4
00:20 1025 30.27 854 25.22 -5.6 22 67 -10.8 12.5
00:25 1025 30.27 854 25.22 -5.8 21.5 68 -10.8 12.6
00:30 1025 30.27 854 25.22 -6 21.2 68 -10.9 12.4
00:35 1024 30.24 854 25.22 -6.2 20.8 69 -11 12.3
00:40 1024 30.24 854 25.22 -6.1 21 69 -10.9 12.4
00:45 1024 30.24 854 25.22 -6.2 20.9 70 -10.8 12.5
00:50 1024 30.24 854 25.22 -6 21.2 69 -10.8 12.6
00:55 1024 30.24 854 25.22 -6.1 20.9 70 -10.8 12.5
01:00 1024 30.24 853 25.19 -6.4 20.6 70 -10.9 12.3
01:05 1024 30.24 853 25.19 -6.3 20.6 70 -10.9 12.4
01:10 1024 30.24 853 25.19 -6.7 19.9 71 -11.1 12
01:15 1024 30.24 853 25.19 -7.1 19.2 73 -11.1 12
01:20 1024 30.24 853 25.19 -6.7 19.9 72 -10.9 12.3
01:25 1024 30.24 853 25.19 -6.9 19.5 73 -11 12.3
01:30 1024 30.24 853 25.19 -6.9 19.6 74 -10.9 12.5
01:35 1024 30.24 853 25.19 -7.1 19.3 74 -10.9 12.4
01:40 1024 30.24 853 25.19 -7.1 19.3 74 -11 12.3
01:45 1024 30.24 853 25.19 -7 19.3 74 -10.8 12.5
01:50 1024 30.24 853 25.19 -6.7 20 73 -10.8 12.6
01:55 1024 30.24 853 25.19 -6.6 20.2 73 -10.7 12.7
02:00 1024 30.24 853 25.19 -6.6 20.2 72 -10.8 12.5
02:05 1024 30.24 853 25.19 -6.6 20.2 72 -10.9 12.4
02:10 1023 30.21 853 25.19 -6.5 20.4 71 -10.8 12.5
02:15 1024 30.24 853 25.19 -6.7 20 72 -11 12.3
02:20 1023 30.21 853 25.19 -7.1 19.3 72 -11.2 11.8
02:25 1023 30.21 853 25.19 -7.3 18.8 73 -11.4 11.5
02:30 1023 30.21 853 25.19 -7.1 19.3 72 -11.3 11.7
02:35 1023 30.21 853 25.19 -6.8 19.8 71 -11.3 11.7
02:40 1023 30.21 852 25.16 -7.3 18.8 72 -11.5 11.3
02:45 1023 30.21 852 25.16 -7.7 18.2 73 -11.8 10.8
02:50 1023 30.21 852 25.16 -7.7 18.1 74 -11.6 11.1
02:55 1023 30.21 852 25.16 -7.5 18.6 74 -11.4 11.5
03:00 1023 30.21 852 25.16 -7.3 18.8 72 -11.5 11.3
03:05 1023 30.21 852 25.16 -7.7 18.1 73 -11.7 10.9
03:10 1023 30.21 852 25.16 -7.7 18.1 74 -11.6 11.2
03:15 1023 30.21 852 25.16 -7.5 18.6 74 -11.3 11.7
03:20 1023 30.21 852 25.16 -7.3 18.9 72 -11.5 11.4
03:25 1023 30.21 852 25.16 -7.8 18 73 -11.8 10.7
03:30 1023 30.21 852 25.16 -7.7 18.1 72 -11.9 10.6
03:35 1023 30.21 852 25.16 -7.4 18.6 72 -11.7 10.9
03:40 1023 30.21 852 25.16 -6.9 19.5 70 -11.6 11.2
03:45 1023 30.21 852 25.16 -6.8 19.8 70 -11.4 11.5
03:50 1023 30.21 852 25.16 -6.8 19.7 70 -11.5 11.3
03:55 1023 30.21 852 25.16 -6.9 19.6 69 -11.7 11
04:00 1022 30.18 852 25.16 -7.4 18.7 70 -12.1 10.3
04:05 1022 30.18 852 25.16 -8.3 17.1 72 -12.5 9.5
04:10 1022 30.18 852 25.16 -8.8 16.1 73 -12.7 9.1
04:15 1022 30.18 851 25.13 -8.9 16.1 73 -12.8 9
04:20 1022 30.18 851 25.13 -8.3 17.1 73 -12.3 9.8
04:25 1022 30.18 851 25.13 -7.6 18.3 71 -12 10.5
04:30 1022 30.18 851 25.13 -7.8 18 72 -12.1 10.2
04:35 1022 30.18 851 25.13 -7.9 17.7 73 -12 10.4
04:40 1022 30.18 851 25.13 -8.2 17.3 74 -12 10.3
04:45 1022 30.18 851 25.13 -7.8 18 73 -11.9 10.7
04:50 1022 30.18 851 25.13 -7.8 18 72 -11.9 10.5
04:55 1022 30.18 851 25.13 -8 17.5 74 -12 10.4
05:00 1022 30.18 851 25.13 -7.8 18.1 73 -11.8 10.8
05:05 1022 30.18 851 25.13 -7.9 17.8 72 -12 10.3
05:10 1022 30.18 851 25.13 -8.6 16.4 74 -12.5 9.5
05:15 1022 30.18 851 25.13 -8.2 17.2 74 -12.1 10.3
05:20 1022 30.18 851 25.13 -7.4 18.7 71 -11.8 10.8
05:25 1022 30.18 851 25.13 -7.9 17.7 72 -12.2 10.1
05:30 1022 30.18 851 25.13 -8.7 16.3 74 -12.6 9.3
05:35 1022 30.18 851 25.13 -8.9 16 74 -12.7 9.2
05:40 1022 30.18 851 25.13 -9 15.8 75 -12.7 9.2
05:45 1022 30.18 851 25.13 -9.1 15.7 76 -12.6 9.3
05:50 1022 30.18 851 25.13 -8.7 16.4 75 -12.3 9.9
05:55 1021 30.15 851 25.13 -8.4 16.9 75 -12.1 10.2
06:00 1021 30.15 851 25.13 -8.4 16.9 75 -12.1 10.2
06:05 1021 30.15 850 25.1 -8.5 16.8 75 -12.2 10.1
06:10 1021 30.15 850 25.1 -8.6 16.5 75 -12.2 10
06:15 1021 30.15 850 25.1 -8.7 16.3 75 -12.3 9.9
06:20 1021 30.15 850 25.1 -9 15.8 78 -12.1 10.2
06:25 1021 30.15 850 25.1 -8.7 16.4 77 -12 10.4
06:30 1021 30.15 850 25.1 -8.3 17 76 -11.8 10.7
06:35 1021 30.15 850 25.1 -8.2 17.3 75 -11.8 10.7
06:40 1021 30.15 850 25.1 -8.5 16.7 75 -12.1 10.2
06:45 1021 30.15 850 25.1 -8.7 16.4 75 -12.3 9.9
06:50 1021 30.15 850 25.1 -9.1 15.7 76 -12.5 9.4
06:55 1021 30.15 850 25.1 -9.1 15.6 77 -12.5 9.5
07:00 1021 30.15 850 25.1 -8.8 16.1 76 -12.3 9.8
07:05 1021 30.15 850 25.1 -8.8 16.2 77 -12.2 10.1
07:10 1021 30.15 850 25.1 -8.9 16 76 -12.3 9.8
07:15 1021 30.15 850 25.1 -9 15.9 77 -12.3 9.9
07:20 1021 30.15 850 25.1 -8.7 16.4 77 -12 10.3
07:25 1020 30.12 850 25.1 -8.3 17.1 76 -11.8 10.8
07:30 1020 30.12 850 25.1 -8.1 17.5 75 -11.7 10.9
07:35 1020 30.12 849 25.07 -8.1 17.5 75 -11.8 10.7
07:40 1020 30.12 849 25.07 -8.1 17.4 74 -11.9 10.6
07:45 1020 30.12 849 25.07 -7.8 18 73 -11.8 10.7
07:50 1020 30.12 849 25.07 -7.7 18.2 72 -11.8 10.7
07:55 1020 30.12 849 25.07 -7.5 18.6 72 -11.8 10.8
08:00 1020 30.12 849 25.07 -7.4 18.7 71 -11.9 10.7
08:05 1020 30.12 849 25.07 -7.3 18.9 70 -11.9 10.5
08:10 1020 30.12 849 25.07 -6.7 19.9 67 -11.8 10.8
08:15 1020 30.12 849 25.07 -6 21.2 65 -11.6 11.2
08:20 1020 30.12 849 25.07 -5.5 22.1 63 -11.5 11.2
08:25 1020 30.12 849 25.07 -5.7 21.8 62 -11.8 10.8
08:30 1020 30.12 849 25.07 -5.7 21.7 63 -11.8 10.8
08:35 1020 30.12 849 25.07 -5.3 22.5 61 -11.6 11.1
08:40 1020 30.12 849 25.07 -4.6 23.6 59 -11.5 11.3
08:45 1020 30.12 849 25.07 -4.2 24.4 57 -11.4 11.4
08:50 1020 30.12 849 25.07 -3.8 25.2 57 -11.2 11.9
08:55 1020 30.12 849 25.07 -3.5 25.7 56 -11.1 12
09:00 1019 30.09 849 25.07 -3.6 25.6 55 -11.4 11.5
09:05 1019 30.09 849 25.07 -3.4 25.9 54 -11.3 11.6
09:10 1019 30.09 848 25.04 -3.1 26.5 55 -10.9 12.3
09:15 1019 30.09 848 25.04 -2.6 27.3 54 -10.6 12.9
09:20 1019 30.09 848 25.04 -2.1 28.2 53 -10.5 13
09:25 1019 30.09 848 25.04 -1.8 28.7 52 -10.5 13.1
09:30 1019 30.09 848 25.04 -1.7 29 50 -10.7 12.7
09:35 1019 30.09 848 25.04 -1.6 29.1 49 -10.9 12.4
09:40 1019 30.09 848 25.04 -1.2 29.9 48 -10.7 12.7
09:45 1019 30.09 848 25.04 -0.9 30.3 47 -10.9 12.4
09:50 1019 30.09 848 25.04 -1 30.3 47 -10.8 12.5
09:55 1019 30.09 848 25.04 -1.1 30.1 46 -11.4 11.5
10:00 1019 30.09 848 25.04 -1 30.1 45 -11.5 11.3
10:05 1019 30.09 848 25.04 -0.9 30.4 44 -11.6 11.2
10:10 1019 30.09 848 25.04 -1.3 29.6 46 -11.5 11.3
10:15 1019 30.09 848 25.04 -0.7 30.8 44 -11.4 11.4
10:20 1019 30.09 848 25.04 -0 31.9 43 -11.2 11.8
10:25 1019 30.09 848 25.04 0.3 32.5 42 -11.4 11.5
10:30 1019 30.09 848 25.04 0.2 32.3 41 -11.6 11.1
10:35 1018 30.06 848 25.04 0 32.1 44 -10.8 12.6
10:40 1018 30.06 848 25.04 0.4 32.7 43 -10.7 12.7
10:45 1018 30.06 848 25.04 0.4 32.8 44 -10.5 13.1
10:50 1018 30.06 847 25.01 0.7 33.3 43 -10.4 13.2
10:55 1018 30.06 847 25.01 0.8 33.5 40 -11.3 11.6
11:00 1018 30.06 847 25.01 0.3 32.6 43 -10.8 12.5
11:05 1018 30.06 847 25.01 0.8 33.5 42 -10.7 12.7
11:10 1018 30.06 847 25.01 1.3 34.3 41 -10.7 12.7
11:15 1018 30.06 847 25.01 1.6 34.9 40 -10.7 12.7
11:20 1017 30.03 847 25.01 1.9 35.3 38 -11 12.2
11:25 1017 30.03 847 25.01 1.7 35.1 38 -11.3 11.7
11:30 1018 30.06 847 25.01 1.4 34.4 38 -11.6 11.2
11:35 1018 30.06 847 25.01 1.4 34.5 39 -11 12.2
11:40 1018 30.06 847 25.01 1.9 35.5 40 -10.2 13.7
11:45 1018 30.06 847 25.01 2.2 35.9 40 -10 13.9
11:50 1017 30.03 847 25.01 1.5 34.8 43 -9.8 14.3
11:55 1017 30.03 847 25.01 1.6 34.8 42 -10.1 13.8
12:00 1017 30.03 847 25.01 1.7 35.1 42 -9.8 14.4
12:05 1017 30.03 846 24.98 1.3 34.4 40 -10.7 12.8
12:10 1017 30.03 846 24.98 1.1 34 42 -10.4 13.3
12:15 1017 30.03 846 24.98 1.3 34.4 40 -11 12.2
12:20 1017 30.03 846 24.98 2 35.6 38 -10.9 12.3
12:25 1017 30.03 846 24.98 2.5 36.4 35 -11.4 11.5
12:30 1017 30.03 846 24.98 2.4 36.4 37 -10.8 12.5
12:35 1016 30 846 24.98 2.7 36.8 34 -11.6 11.2
12:40 1016 30 846 24.98 2.9 37.2 33 -11.7 10.9
12:45 1016 30 845 24.95 2.8 37.1 33 -12 10.4
12:50 1016 30 845 24.95 2.9 37.1 34 -11.7 11
12:55 1016 30 845 24.95 3.4 38 34 -11.3 11.7
13:00 1016 30 845 24.95 3.6 38.5 35 -10.5 13.1
13:05 1016 30 845 24.95 3.1 37.5 34 -11.5 11.3
13:10 1015 29.97 845 24.95 2.6 36.7 35 -11.6 11.2
13:15 1015 29.97 844 24.92 2.3 36.1 36 -11.1 11.9
13:20 1015 29.97 844 24.92 2.5 36.5 38 -10.5 13.2
13:25 1015 29.97 844 24.92 2.7 36.8 38 -10.2 13.7
13:30 1015 29.97 844 24.92 3.2 37.7 36 -10.6 12.9
13:35 1015 29.97 844 24.92 3.1 37.6 35 -10.9 12.4
13:40 1015 29.97 844 24.92 3.4 38.2 35 -10.7 12.7
13:45 1015 29.97 844 24.92 4 39.2 34 -10.5 13.1
13:50 1014 29.94 844 24.92 4.3 39.7 33 -10.5 13.1
13:55 1014 29.94 844 24.92 4.2 39.5 33 -10.6 13
14:00 1014 29.94 843 24.89 4.5 40 33 -10.4 13.4
14:05 1014 29.94 843 24.89 4.7 40.5 33 -10.3 13.5
14:10 1014 29.94 843 24.89 5 41.1 33 -9.8 14.4
14:15 1014 29.94 843 24.89 5.2 41.4 34 -9.6 14.7
14:20 1014 29.94 843 24.89 5.6 42 33 -9.3 15.2
14:25 1014 29.94 843 24.89 5.8 42.4 33 -9.1 15.6
14:30 1014 29.94 843 24.89 5.3 41.6 35 -8.9 15.9
14:35 1014 29.94 843 24.89 5.1 41.2 37 -8.4 16.8
14:40 1014 29.94 843 24.89 4.9 40.9 38 -8.4 16.9
14:45 1014 29.94 843 24.89 4.7 40.5 38 -8.4 16.9
14:50 1013 29.91 843 24.89 4.8 40.7 36 -9 15.7
14:55 1013 29.91 842 24.86 4.9 40.8 35 -9.2 15.4
15:00 1013 29.91 842 24.86 4.5 40 37 -9.1 15.7
15:05 1013 29.91 842 24.86 4.5 40 37 -8.9 16
15:10 1013 29.91 842 24.86 4.7 40.4 36 -9.1 15.7
15:15 1013 29.91 842 24.86 4.8 40.6 37 -8.5 16.6
15:20 1013 29.91 842 24.86 4.8 40.7 38 -8.4 16.9
15:25 1013 29.91 842 24.86 4.8 40.7 37 -8.7 16.4
15:30 1013 29.91 842 24.86 4.8 40.6 37 -8.9 16
15:35 1013 29.91 842 24.86 4.4 39.9 39 -8.4 16.8
15:40 1013 29.91 842 24.86 4.3 39.8 39 -8.4 16.8
15:45 1013 29.91 842 24.86 4.4 39.9 40 -8.2 17.3
15:50 1013 29.91 842 24.86 4.5 40.1 38 -8.5 16.7
15:55 1013 29.91 842 24.86 4.3 39.8 39 -8.4 16.9
16:00 1012 29.88 842 24.86 4.2 39.5 40 -8.2 17.3
16:05 1012 29.88 841 24.83 4.3 39.7 41 -7.9 17.8
16:10 1012 29.88 841 24.83 4.4 40 42 -7.5 18.5
16:15 1012 29.88 841 24.83 4.5 40.2 44 -6.6 20.1
16:20 1012 29.88 841 24.83 4.3 39.8 47 -6 21.3
16:25 1012 29.88 841 24.83 4.3 39.8 46 -6.2 20.8
16:30 1012 29.88 841 24.83 4.3 39.8 46 -6.1 20.9
16:35 1012 29.88 841 24.83 4.2 39.6 48 -5.9 21.3
16:40 1012 29.88 841 24.83 4.2 39.6 48 -5.9 21.4
16:45 1012 29.88 841 24.83 4.2 39.5 47 -6.1 21
16:50 1011 29.85 841 24.83 4.3 39.7 47 -6.1 20.9
16:55 1011 29.85 841 24.83 4.2 39.5 47 -6 21.1
17:00 1011 29.85 840 24.81 4.3 39.7 45 -6.5 20.3
17:05 1011 29.85 840 24.81 4.5 40.1 45 -6.4 20.4
17:10 1011 29.85 840 24.81 4.4 39.9 46 -6.2 20.9
17:15 1011 29.85 840 24.81 4.1 39.4 47 -6.1 20.9
17:20 1011 29.85 840 24.81 4 39.2 48 -6 21.2
17:25 1011 29.85 840 24.81 4 39.3 47 -6.2 20.9
17:30 1011 29.85 840 24.81 4.1 39.4 47 -6.2 20.8
17:35 1011 29.85 840 24.81 4.1 39.4 47 -6.2 20.8
17:40 1011 29.85 840 24.81 3.9 39 49 -6 21.3
17:45 1011 29.85 840 24.81 3.9 39 48 -6.1 21.1
17:50 1011 29.85 840 24.81 4 39.2 47 -6.2 20.8
17:55 1011 29.85 840 24.81 4.1 39.4 45 -6.7 20
18:00 1011 29.85 840 24.81 4.3 39.7 45 -6.8 19.8
18:05 1011 29.85 840 24.81 4.3 39.8 44 -6.7 19.9
18:10 1011 29.85 840 24.81 4.3 39.7 45 -6.6 20.1
18:15 1011 29.85 840 24.81 4.2 39.6 46 -6.3 20.7
18:20 1011 29.85 840 24.81 4.1 39.4 47 -6.2 20.8
18:25 1010 29.83 840 24.81 4 39.2 48 -6.1 21
18:30 1010 29.83 840 24.81 3.8 38.8 48 -6.1 21
18:35 1010 29.83 839 24.78 3.9 39 48 -6.1 21
18:40 1010 29.83 839 24.78 4.2 39.5 48 -5.8 21.5
18:45 1010 29.83 839 24.78 4.5 40.1 47 -5.8 21.6
18:50 1010 29.83 839 24.78 4.5 40.2 47 -5.7 21.8
18:55 1010 29.83 839 24.78 4.5 40 48 -5.7 21.7
19:00 1010 29.83 839 24.78 4.5 40.1 48 -5.6 22
19:05 1010 29.83 839 24.78 4.4 39.9 49 -5.4 22.3
19:10 1010 29.83 839 24.78 4.2 39.6 50 -5.2 22.7
19:15 1010 29.83 839 24.78 4.1 39.5 51 -5.2 22.7
19:20 1010 29.83 839 24.78 4.1 39.4 51 -5.2 22.7
19:25 1010 29.83 839 24.78 4 39.2 52 -5 22.9
19:30 1010 29.83 839 24.78 3.8 38.8 52 -5.3 22.5
19:35 1010 29.83 839 24.78 3.6 38.4 50 -5.8 21.5
19:40 1010 29.83 839 24.78 3.4 38 51 -5.8 21.6
19:45 1010 29.83 839 24.78 3.2 37.8 52 -5.7 21.7
19:50 1010 29.83 839 24.78 3.3 37.9 52 -5.6 21.9
19:55 1010 29.83 839 24.78 3.3 38 52 -5.5 22.1
20:00 1010 29.83 839 24.78 3.3 37.9 54 -5.2 22.6
20:05 1010 29.83 839 24.78 3.2 37.8 54 -5.3 22.4
20:10 1009 29.8 839 24.78 3 37.5 55 -5.2 22.6
20:15 1009 29.8 839 24.78 3 37.3 54 -5.4 22.3
20:20 1009 29.8 838 24.75 3 37.5 54 -5.5 22.1
20:25 1009 29.8 838 24.75 2.9 37.3 54 -5.4 22.3
20:30 1009 29.8 838 24.75 2.6 36.7 56 -5.2 22.6
20:35 1009 29.8 838 24.75 2.4 36.4 58 -5.1 22.8
20:40 1009 29.8 838 24.75 2.6 36.6 57 -5.2 22.7
20:45 1009 29.8 838 24.75 2.9 37.2 54 -5.5 22.1
20:50 1009 29.8 838 24.75 3 37.4 55 -5.2 22.7
20:55 1009 29.8 838 24.75 2.7 36.9 56 -5.2 22.6
21:00 1009 29.8 838 24.75 2.6 36.7 56 -5.3 22.4
21:05 1009 29.8 839 24.78 2.7 36.9 55 -5.4 22.3
21:10 1009 29.8 839 24.78 2.8 37 55 -5.4 22.4
21:15 1010 29.83 839 24.78 2.8 37 55 -5.4 22.2
21:20 1010 29.83 839 24.78 2.7 36.8 56 -5.2 22.7
21:25 1010 29.83 839 24.78 2.5 36.5 56 -5.5 22.1
21:30 1010 29.83 839 24.78 2.4 36.4 56 -5.5 22
21:35 1010 29.83 839 24.78 2.3 36.2 55 -5.7 21.7
21:40 1010 29.83 839 24.78 2.2 35.9 56 -5.8 21.6
21:45 1010 29.83 839 24.78 2 35.7 57 -5.7 21.8
21:50 1010 29.83 839 24.78 1.9 35.4 56 -5.9 21.3
21:55 1010 29.83 839 24.78 2 35.6 55 -6 21.1
22:00 1010 29.83 839 24.78 2 35.5 56 -5.9 21.4
22:05 1010 29.83 839 24.78 1.8 35.2 57 -5.9 21.4
22:10 1010 29.83 839 24.78 1.9 35.3 56 -6.1 21
22:15 1010 29.83 839 24.78 1.9 35.4 55 -6.1 21
22:20 1010 29.83 839 24.78 1.9 35.4 55 -6.1 21
22:25 1010 29.83 839 24.78 1.9 35.5 56 -5.9 21.5
22:30 1010 29.83 839 24.78 1.8 35.3 57 -5.9 21.5
22:35 1010 29.83 839 24.78 1.8 35.2 56 -6.2 20.9
22:40 1010 29.83 839 24.78 1.8 35.3 57 -5.8 21.6
22:45 1010 29.83 839 24.78 1.7 35.1 57 -5.8 21.5
22:50 1010 29.83 839 24.78 1.6 34.9 57 -5.9 21.4
22:55 1010 29.83 839 24.78 1.7 35.1 56 -6.2 20.9
23:00 1010 29.83 839 24.78 1.7 35 56 -6.1 20.9
23:05 1010 29.83 839 24.78 1.5 34.6 58 -6 21.2
23:10 1010 29.83 839 24.78 1.2 34.2 59 -6 21.3
23:15 1010 29.83 839 24.78 1.3 34.3 58 -6 21.2
23:20 1010 29.83 839 24.78 1.3 34.4 59 -5.8 21.6
23:25 1009 29.8 839 24.78 1.4 34.5 58 -5.9 21.3
23:30 1009 29.8 839 24.78 1.5 34.8 58 -5.8 21.6
23:35 1009 29.8 839 24.78 1.5 34.8 58 -5.8 21.6
23:40 1009 29.8 839 24.78 1.6 34.8 59 -5.6 21.9
23:45 1009 29.8 839 24.78 1.5 34.7 59 -5.6 21.9
23:50 1009 29.8 839 24.78 1.4 34.4 58 -6.1 21.1
23:55 1009 29.8 839 24.78 1.3 34.3 58 -6.1 21
24:00 1009 29.8 839 24.78 1.1 34.1 58 -6.2 20.8